sensor_id;sensor_type;location;lat;lon;timestamp;P1;durP1;ratioP1;P2;durP2;ratioP2
14554;SDS011;7364;50.870;4.722;2024-03-29T00:00:48;3.53;;;1.17;;
14554;SDS011;7364;50.870;4.722;2024-03-29T00:03:14;2.50;;;0.80;;
14554;SDS011;7364;50.870;4.722;2024-03-29T00:05:40;4.63;;;1.00;;
14554;SDS011;7364;50.870;4.722;2024-03-29T00:08:06;2.77;;;0.90;;
14554;SDS011;7364;50.870;4.722;2024-03-29T00:10:34;2.27;;;1.20;;
14554;SDS011;7364;50.870;4.722;2024-03-29T00:13:00;2.80;;;0.90;;
14554;SDS011;7364;50.870;4.722;2024-03-29T00:15:26;3.10;;;1.23;;
14554;SDS011;7364;50.870;4.722;2024-03-29T00:17:52;4.10;;;1.70;;
14554;SDS011;7364;50.870;4.722;2024-03-29T00:20:18;2.70;;;1.30;;
14554;SDS011;7364;50.870;4.722;2024-03-29T00:22:46;3.00;;;1.23;;
14554;SDS011;7364;50.870;4.722;2024-03-29T00:25:13;2.33;;;1.20;;
14554;SDS011;7364;50.870;4.722;2024-03-29T00:27:40;2.00;;;0.93;;
14554;SDS011;7364;50.870;4.722;2024-03-29T00:30:07;3.70;;;1.13;;
14554;SDS011;7364;50.870;4.722;2024-03-29T00:32:33;2.07;;;1.00;;
14554;SDS011;7364;50.870;4.722;2024-03-29T00:35:00;1.97;;;0.93;;
14554;SDS011;7364;50.870;4.722;2024-03-29T00:37:27;5.40;;;1.17;;
14554;SDS011;7364;50.870;4.722;2024-03-29T00:39:54;3.07;;;1.00;;
14554;SDS011;7364;50.870;4.722;2024-03-29T00:42:20;1.17;;;0.77;;
14554;SDS011;7364;50.870;4.722;2024-03-29T00:44:48;1.83;;;0.87;;
14554;SDS011;7364;50.870;4.722;2024-03-29T00:47:14;3.03;;;1.20;;
14554;SDS011;7364;50.870;4.722;2024-03-29T00:49:40;2.07;;;1.00;;
14554;SDS011;7364;50.870;4.722;2024-03-29T00:52:06;1.97;;;0.87;;
14554;SDS011;7364;50.870;4.722;2024-03-29T00:54:33;4.80;;;1.17;;
14554;SDS011;7364;50.870;4.722;2024-03-29T00:56:59;2.83;;;1.17;;
14554;SDS011;7364;50.870;4.722;2024-03-29T00:59:25;3.03;;;1.10;;
14554;SDS011;7364;50.870;4.722;2024-03-29T01:01:53;2.43;;;1.03;;
14554;SDS011;7364;50.870;4.722;2024-03-29T01:04:19;2.60;;;1.00;;
14554;SDS011;7364;50.870;4.722;2024-03-29T01:06:45;5.07;;;0.87;;
14554;SDS011;7364;50.870;4.722;2024-03-29T01:09:11;2.43;;;1.20;;
14554;SDS011;7364;50.870;4.722;2024-03-29T01:11:38;4.97;;;1.10;;
14554;SDS011;7364;50.870;4.722;2024-03-29T01:14:04;3.10;;;1.17;;
14554;SDS011;7364;50.870;4.722;2024-03-29T01:16:31;2.40;;;1.10;;
14554;SDS011;7364;50.870;4.722;2024-03-29T01:18:59;3.07;;;1.00;;
14554;SDS011;7364;50.870;4.722;2024-03-29T01:21:25;4.70;;;1.13;;
14554;SDS011;7364;50.870;4.722;2024-03-29T01:23:52;2.03;;;0.90;;
14554;SDS011;7364;50.870;4.722;2024-03-29T01:26:18;2.37;;;1.07;;
14554;SDS011;7364;50.870;4.722;2024-03-29T01:28:44;2.23;;;1.20;;
14554;SDS011;7364;50.870;4.722;2024-03-29T01:31:10;4.30;;;1.07;;
14554;SDS011;7364;50.870;4.722;2024-03-29T01:33:37;2.57;;;0.70;;
14554;SDS011;7364;50.870;4.722;2024-03-29T01:36:05;5.33;;;1.53;;
14554;SDS011;7364;50.870;4.722;2024-03-29T01:38:32;2.17;;;0.83;;
14554;SDS011;7364;50.870;4.722;2024-03-29T01:40:58;4.03;;;0.73;;
14554;SDS011;7364;50.870;4.722;2024-03-29T01:43:25;1.90;;;0.80;;
14554;SDS011;7364;50.870;4.722;2024-03-29T01:45:53;6.73;;;1.13;;
14554;SDS011;7364;50.870;4.722;2024-03-29T01:48:21;1.50;;;0.53;;
14554;SDS011;7364;50.870;4.722;2024-03-29T01:50:50;2.10;;;0.80;;
14554;SDS011;7364;50.870;4.722;2024-03-29T01:53:21;3.20;;;0.87;;
14554;SDS011;7364;50.870;4.722;2024-03-29T01:55:49;1.60;;;0.73;;
14554;SDS011;7364;50.870;4.722;2024-03-29T01:58:17;1.53;;;0.73;;
14554;SDS011;7364;50.870;4.722;2024-03-29T02:00:49;3.30;;;0.67;;
14554;SDS011;7364;50.870;4.722;2024-03-29T02:03:19;3.40;;;1.10;;
14554;SDS011;7364;50.870;4.722;2024-03-29T02:05:46;4.33;;;0.80;;
14554;SDS011;7364;50.870;4.722;2024-03-29T02:08:15;1.53;;;0.60;;
14554;SDS011;7364;50.870;4.722;2024-03-29T02:10:44;0.77;;;0.50;;
14554;SDS011;7364;50.870;4.722;2024-03-29T02:13:13;2.10;;;0.70;;
14554;SDS011;7364;50.870;4.722;2024-03-29T02:15:41;1.70;;;0.60;;
14554;SDS011;7364;50.870;4.722;2024-03-29T02:18:08;0.57;;;0.40;;
14554;SDS011;7364;50.870;4.722;2024-03-29T02:20:36;0.70;;;0.33;;
14554;SDS011;7364;50.870;4.722;2024-03-29T02:23:06;0.97;;;0.60;;
14554;SDS011;7364;50.870;4.722;2024-03-29T02:25:37;2.17;;;0.60;;
14554;SDS011;7364;50.870;4.722;2024-03-29T02:28:05;1.93;;;0.70;;
14554;SDS011;7364;50.870;4.722;2024-03-29T02:30:32;3.27;;;0.60;;
14554;SDS011;7364;50.870;4.722;2024-03-29T02:33:00;2.50;;;0.70;;
14554;SDS011;7364;50.870;4.722;2024-03-29T02:35:28;2.23;;;0.57;;
14554;SDS011;7364;50.870;4.722;2024-03-29T02:37:56;3.80;;;1.10;;
14554;SDS011;7364;50.870;4.722;2024-03-29T02:40:24;2.37;;;0.73;;
14554;SDS011;7364;50.870;4.722;2024-03-29T02:42:52;2.10;;;0.83;;
14554;SDS011;7364;50.870;4.722;2024-03-29T02:45:20;1.80;;;0.63;;
14554;SDS011;7364;50.870;4.722;2024-03-29T02:47:47;1.50;;;1.03;;
14554;SDS011;7364;50.870;4.722;2024-03-29T02:50:15;3.03;;;0.90;;
14554;SDS011;7364;50.870;4.722;2024-03-29T02:52:42;1.30;;;0.70;;
14554;SDS011;7364;50.870;4.722;2024-03-29T02:55:09;2.43;;;1.10;;
14554;SDS011;7364;50.870;4.722;2024-03-29T02:57:36;1.20;;;0.63;;
14554;SDS011;7364;50.870;4.722;2024-03-29T03:00:06;2.50;;;0.90;;
14554;SDS011;7364;50.870;4.722;2024-03-29T03:02:37;3.07;;;1.03;;
14554;SDS011;7364;50.870;4.722;2024-03-29T03:05:05;3.37;;;0.90;;
14554;SDS011;7364;50.870;4.722;2024-03-29T03:07:32;1.63;;;1.00;;
14554;SDS011;7364;50.870;4.722;2024-03-29T03:10:17;0.93;;;0.70;;
14554;SDS011;7364;50.870;4.722;2024-03-29T03:13:02;1.50;;;0.80;;
14554;SDS011;7364;50.870;4.722;2024-03-29T03:15:31;3.50;;;0.90;;
14554;SDS011;7364;50.870;4.722;2024-03-29T03:17:58;2.20;;;0.97;;
14554;SDS011;7364;50.870;4.722;2024-03-29T03:20:26;3.70;;;1.23;;
14554;SDS011;7364;50.870;4.722;2024-03-29T03:22:56;2.37;;;0.97;;
14554;SDS011;7364;50.870;4.722;2024-03-29T03:25:24;2.50;;;0.90;;
14554;SDS011;7364;50.870;4.722;2024-03-29T03:27:50;1.37;;;0.70;;
14554;SDS011;7364;50.870;4.722;2024-03-29T03:30:18;2.07;;;1.00;;
14554;SDS011;7364;50.870;4.722;2024-03-29T03:32:45;1.80;;;0.90;;
14554;SDS011;7364;50.870;4.722;2024-03-29T03:35:13;2.90;;;1.07;;
14554;SDS011;7364;50.870;4.722;2024-03-29T03:37:39;1.57;;;0.90;;
14554;SDS011;7364;50.870;4.722;2024-03-29T03:40:07;6.43;;;1.23;;
14554;SDS011;7364;50.870;4.722;2024-03-29T03:42:34;2.47;;;1.37;;
14554;SDS011;7364;50.870;4.722;2024-03-29T03:45:01;6.60;;;1.30;;
14554;SDS011;7364;50.870;4.722;2024-03-29T03:47:28;1.87;;;0.87;;
14554;SDS011;7364;50.870;4.722;2024-03-29T03:49:57;2.27;;;1.07;;
14554;SDS011;7364;50.870;4.722;2024-03-29T03:52:23;3.53;;;0.97;;
14554;SDS011;7364;50.870;4.722;2024-03-29T03:54:51;2.43;;;0.87;;
14554;SDS011;7364;50.870;4.722;2024-03-29T03:57:17;1.60;;;0.70;;
14554;SDS011;7364;50.870;4.722;2024-03-29T03:59:44;3.13;;;1.13;;
14554;SDS011;7364;50.870;4.722;2024-03-29T04:02:11;1.73;;;0.70;;
14554;SDS011;7364;50.870;4.722;2024-03-29T04:04:38;1.37;;;0.87;;
14554;SDS011;7364;50.870;4.722;2024-03-29T04:07:06;2.40;;;1.03;;
14554;SDS011;7364;50.870;4.722;2024-03-29T04:09:33;2.13;;;0.83;;
14554;SDS011;7364;50.870;4.722;2024-03-29T04:12:00;2.17;;;0.70;;
14554;SDS011;7364;50.870;4.722;2024-03-29T04:14:28;2.63;;;0.80;;
14554;SDS011;7364;50.870;4.722;2024-03-29T04:16:54;2.37;;;0.87;;
14554;SDS011;7364;50.870;4.722;2024-03-29T04:19:21;1.83;;;1.10;;
14554;SDS011;7364;50.870;4.722;2024-03-29T04:21:48;3.77;;;1.00;;
14554;SDS011;7364;50.870;4.722;2024-03-29T04:24:16;4.17;;;0.90;;
14554;SDS011;7364;50.870;4.722;2024-03-29T04:26:42;1.00;;;0.70;;
14554;SDS011;7364;50.870;4.722;2024-03-29T04:29:12;3.60;;;1.30;;
14554;SDS011;7364;50.870;4.722;2024-03-29T04:31:39;3.63;;;1.47;;
14554;SDS011;7364;50.870;4.722;2024-03-29T04:34:07;1.80;;;0.87;;
14554;SDS011;7364;50.870;4.722;2024-03-29T04:36:33;2.23;;;1.00;;
14554;SDS011;7364;50.870;4.722;2024-03-29T04:39:00;2.80;;;1.03;;
14554;SDS011;7364;50.870;4.722;2024-03-29T04:41:29;1.50;;;0.80;;
14554;SDS011;7364;50.870;4.722;2024-03-29T04:43:59;2.30;;;0.97;;
14554;SDS011;7364;50.870;4.722;2024-03-29T04:46:29;3.17;;;0.80;;
14554;SDS011;7364;50.870;4.722;2024-03-29T04:48:57;4.37;;;1.30;;
14554;SDS011;7364;50.870;4.722;2024-03-29T04:51:24;3.37;;;1.23;;
14554;SDS011;7364;50.870;4.722;2024-03-29T04:53:52;3.30;;;1.10;;
14554;SDS011;7364;50.870;4.722;2024-03-29T04:56:19;1.50;;;0.90;;
14554;SDS011;7364;50.870;4.722;2024-03-29T04:58:47;0.97;;;0.70;;
14554;SDS011;7364;50.870;4.722;2024-03-29T05:01:15;2.67;;;1.00;;
14554;SDS011;7364;50.870;4.722;2024-03-29T05:03:43;3.57;;;1.27;;
14554;SDS011;7364;50.870;4.722;2024-03-29T05:06:10;10.13;;;1.30;;
14554;SDS011;7364;50.870;4.722;2024-03-29T05:08:37;2.70;;;1.50;;
14554;SDS011;7364;50.870;4.722;2024-03-29T05:11:05;4.67;;;1.30;;
14554;SDS011;7364;50.870;4.722;2024-03-29T05:13:33;1.73;;;0.97;;
14554;SDS011;7364;50.870;4.722;2024-03-29T05:16:01;1.53;;;0.90;;
14554;SDS011;7364;50.870;4.722;2024-03-29T05:18:28;2.23;;;1.47;;
14554;SDS011;7364;50.870;4.722;2024-03-29T05:20:55;4.03;;;1.20;;
14554;SDS011;7364;50.870;4.722;2024-03-29T05:23:22;1.23;;;0.60;;
14554;SDS011;7364;50.870;4.722;2024-03-29T05:25:50;5.77;;;1.07;;
14554;SDS011;7364;50.870;4.722;2024-03-29T05:28:17;1.47;;;1.00;;
14554;SDS011;7364;50.870;4.722;2024-03-29T05:30:44;1.83;;;0.80;;
14554;SDS011;7364;50.870;4.722;2024-03-29T05:33:13;1.90;;;1.27;;
14554;SDS011;7364;50.870;4.722;2024-03-29T05:35:41;6.97;;;1.83;;
14554;SDS011;7364;50.870;4.722;2024-03-29T05:38:08;2.40;;;1.23;;
14554;SDS011;7364;50.870;4.722;2024-03-29T05:40:35;2.20;;;1.20;;
14554;SDS011;7364;50.870;4.722;2024-03-29T05:43:03;2.73;;;1.43;;
14554;SDS011;7364;50.870;4.722;2024-03-29T05:45:32;6.03;;;1.57;;
14554;SDS011;7364;50.870;4.722;2024-03-29T05:47:59;2.53;;;1.10;;
14554;SDS011;7364;50.870;4.722;2024-03-29T05:50:28;2.40;;;1.20;;
14554;SDS011;7364;50.870;4.722;2024-03-29T05:52:55;5.23;;;1.30;;
14554;SDS011;7364;50.870;4.722;2024-03-29T05:55:25;7.57;;;1.30;;
14554;SDS011;7364;50.870;4.722;2024-03-29T05:57:52;2.43;;;1.10;;
14554;SDS011;7364;50.870;4.722;2024-03-29T06:00:20;3.57;;;1.50;;
14554;SDS011;7364;50.870;4.722;2024-03-29T06:02:47;2.33;;;1.10;;
14554;SDS011;7364;50.870;4.722;2024-03-29T06:05:14;2.37;;;0.90;;
14554;SDS011;7364;50.870;4.722;2024-03-29T06:07:43;1.97;;;1.10;;
14554;SDS011;7364;50.870;4.722;2024-03-29T06:10:10;1.70;;;1.10;;
14554;SDS011;7364;50.870;4.722;2024-03-29T06:12:39;1.80;;;1.03;;
14554;SDS011;7364;50.870;4.722;2024-03-29T06:15:07;4.37;;;1.23;;
14554;SDS011;7364;50.870;4.722;2024-03-29T06:17:52;1.47;;;0.80;;
14554;SDS011;7364;50.870;4.722;2024-03-29T06:20:19;6.37;;;0.97;;
14554;SDS011;7364;50.870;4.722;2024-03-29T06:22:48;5.27;;;1.00;;
14554;SDS011;7364;50.870;4.722;2024-03-29T06:25:15;2.10;;;1.17;;
14554;SDS011;7364;50.870;4.722;2024-03-29T06:27:42;5.63;;;1.47;;
14554;SDS011;7364;50.870;4.722;2024-03-29T06:30:13;1.97;;;1.10;;
14554;SDS011;7364;50.870;4.722;2024-03-29T06:32:42;1.37;;;1.03;;
14554;SDS011;7364;50.870;4.722;2024-03-29T06:35:10;2.30;;;1.27;;
14554;SDS011;7364;50.870;4.722;2024-03-29T06:37:37;3.17;;;1.60;;
14554;SDS011;7364;50.870;4.722;2024-03-29T06:40:07;6.60;;;1.63;;
14554;SDS011;7364;50.870;4.722;2024-03-29T06:42:35;8.63;;;2.60;;
14554;SDS011;7364;50.870;4.722;2024-03-29T06:45:03;5.07;;;2.07;;
14554;SDS011;7364;50.870;4.722;2024-03-29T06:47:32;4.17;;;2.03;;
14554;SDS011;7364;50.870;4.722;2024-03-29T06:49:59;3.33;;;1.60;;
14554;SDS011;7364;50.870;4.722;2024-03-29T06:52:26;4.33;;;1.20;;
14554;SDS011;7364;50.870;4.722;2024-03-29T06:54:53;3.97;;;1.00;;
14554;SDS011;7364;50.870;4.722;2024-03-29T06:57:22;3.03;;;1.60;;
14554;SDS011;7364;50.870;4.722;2024-03-29T06:59:51;3.20;;;1.17;;
14554;SDS011;7364;50.870;4.722;2024-03-29T07:02:19;5.70;;;1.67;;
14554;SDS011;7364;50.870;4.722;2024-03-29T07:04:46;2.20;;;1.10;;
14554;SDS011;7364;50.870;4.722;2024-03-29T07:07:13;2.40;;;1.17;;
14554;SDS011;7364;50.870;4.722;2024-03-29T07:09:41;4.53;;;1.07;;
14554;SDS011;7364;50.870;4.722;2024-03-29T07:12:08;2.73;;;1.23;;
14554;SDS011;7364;50.870;4.722;2024-03-29T07:14:37;2.43;;;1.03;;
14554;SDS011;7364;50.870;4.722;2024-03-29T07:17:04;4.97;;;1.30;;
14554;SDS011;7364;50.870;4.722;2024-03-29T07:19:32;2.80;;;1.40;;
14554;SDS011;7364;50.870;4.722;2024-03-29T07:22:00;2.60;;;1.00;;
14554;SDS011;7364;50.870;4.722;2024-03-29T07:24:27;3.60;;;1.40;;
14554;SDS011;7364;50.870;4.722;2024-03-29T07:26:54;2.40;;;1.17;;
14554;SDS011;7364;50.870;4.722;2024-03-29T07:29:21;2.27;;;1.10;;
14554;SDS011;7364;50.870;4.722;2024-03-29T07:31:50;1.97;;;1.43;;
14554;SDS011;7364;50.870;4.722;2024-03-29T07:34:17;3.30;;;1.50;;
14554;SDS011;7364;50.870;4.722;2024-03-29T07:36:45;1.90;;;1.40;;
14554;SDS011;7364;50.870;4.722;2024-03-29T07:39:12;1.83;;;1.30;;
14554;SDS011;7364;50.870;4.722;2024-03-29T07:41:39;7.93;;;1.77;;
14554;SDS011;7364;50.870;4.722;2024-03-29T07:44:07;4.70;;;1.33;;
14554;SDS011;7364;50.870;4.722;2024-03-29T07:46:35;5.73;;;1.33;;
14554;SDS011;7364;50.870;4.722;2024-03-29T07:49:04;3.63;;;1.73;;
14554;SDS011;7364;50.870;4.722;2024-03-29T07:51:33;2.87;;;1.43;;
14554;SDS011;7364;50.870;4.722;2024-03-29T07:54:00;1.37;;;1.20;;
14554;SDS011;7364;50.870;4.722;2024-03-29T07:56:27;2.97;;;1.60;;
14554;SDS011;7364;50.870;4.722;2024-03-29T07:58:55;5.10;;;2.20;;
14554;SDS011;7364;50.870;4.722;2024-03-29T08:01:22;5.77;;;1.80;;
14554;SDS011;7364;50.870;4.722;2024-03-29T08:03:50;3.73;;;2.10;;
14554;SDS011;7364;50.870;4.722;2024-03-29T08:06:20;3.17;;;1.57;;
14554;SDS011;7364;50.870;4.722;2024-03-29T08:08:48;2.80;;;1.87;;
14554;SDS011;7364;50.870;4.722;2024-03-29T08:11:16;4.03;;;1.57;;
14554;SDS011;7364;50.870;4.722;2024-03-29T08:13:43;2.10;;;1.40;;
14554;SDS011;7364;50.870;4.722;2024-03-29T08:16:11;4.67;;;1.83;;
14554;SDS011;7364;50.870;4.722;2024-03-29T08:18:38;4.30;;;1.57;;
14554;SDS011;7364;50.870;4.722;2024-03-29T08:21:05;2.37;;;1.43;;
14554;SDS011;7364;50.870;4.722;2024-03-29T08:23:38;2.10;;;1.17;;
14554;SDS011;7364;50.870;4.722;2024-03-29T08:26:06;4.17;;;1.50;;
14554;SDS011;7364;50.870;4.722;2024-03-29T08:28:34;6.40;;;1.70;;
14554;SDS011;7364;50.870;4.722;2024-03-29T08:31:03;2.37;;;1.60;;
14554;SDS011;7364;50.870;4.722;2024-03-29T08:33:32;3.17;;;1.83;;
14554;SDS011;7364;50.870;4.722;2024-03-29T08:36:03;2.43;;;1.63;;
14554;SDS011;7364;50.870;4.722;2024-03-29T08:38:31;4.37;;;1.80;;
14554;SDS011;7364;50.870;4.722;2024-03-29T08:41:03;2.93;;;1.73;;
14554;SDS011;7364;50.870;4.722;2024-03-29T08:43:31;3.17;;;1.57;;
14554;SDS011;7364;50.870;4.722;2024-03-29T08:45:58;2.70;;;1.43;;
14554;SDS011;7364;50.870;4.722;2024-03-29T08:48:26;2.30;;;1.40;;
14554;SDS011;7364;50.870;4.722;2024-03-29T08:50:54;2.60;;;1.40;;
14554;SDS011;7364;50.870;4.722;2024-03-29T08:53:21;2.33;;;1.50;;
14554;SDS011;7364;50.870;4.722;2024-03-29T08:55:50;2.53;;;1.60;;
14554;SDS011;7364;50.870;4.722;2024-03-29T08:58:19;3.87;;;1.60;;
14554;SDS011;7364;50.870;4.722;2024-03-29T09:00:57;3.77;;;1.30;;
14554;SDS011;7364;50.870;4.722;2024-03-29T09:03:29;5.03;;;1.63;;
14554;SDS011;7364;50.870;4.722;2024-03-29T09:05:56;1.90;;;1.10;;
14554;SDS011;7364;50.870;4.722;2024-03-29T09:08:24;3.13;;;1.13;;
14554;SDS011;7364;50.870;4.722;2024-03-29T09:10:51;3.27;;;1.30;;
14554;SDS011;7364;50.870;4.722;2024-03-29T09:13:20;1.57;;;0.97;;
14554;SDS011;7364;50.870;4.722;2024-03-29T09:15:47;1.93;;;1.10;;
14554;SDS011;7364;50.870;4.722;2024-03-29T09:18:14;3.07;;;1.13;;
14554;SDS011;7364;50.870;4.722;2024-03-29T09:20:55;2.27;;;1.03;;
14554;SDS011;7364;50.870;4.722;2024-03-29T09:23:24;1.70;;;1.10;;
14554;SDS011;7364;50.870;4.722;2024-03-29T09:25:53;2.00;;;1.00;;
14554;SDS011;7364;50.870;4.722;2024-03-29T09:28:23;1.40;;;1.10;;
14554;SDS011;7364;50.870;4.722;2024-03-29T09:30:56;2.73;;;0.90;;
14554;SDS011;7364;50.870;4.722;2024-03-29T09:33:25;0.80;;;0.70;;
14554;SDS011;7364;50.870;4.722;2024-03-29T09:35:52;1.03;;;0.77;;
14554;SDS011;7364;50.870;4.722;2024-03-29T09:38:19;0.80;;;0.70;;
14554;SDS011;7364;50.870;4.722;2024-03-29T09:40:47;2.37;;;1.00;;
14554;SDS011;7364;50.870;4.722;2024-03-29T09:43:24;2.10;;;0.80;;
14554;SDS011;7364;50.870;4.722;2024-03-29T09:45:53;0.90;;;0.67;;
14554;SDS011;7364;50.870;4.722;2024-03-29T09:48:21;2.93;;;0.80;;
14554;SDS011;7364;50.870;4.722;2024-03-29T09:50:50;2.10;;;0.83;;
14554;SDS011;7364;50.870;4.722;2024-03-29T09:53:19;1.00;;;0.70;;
14554;SDS011;7364;50.870;4.722;2024-03-29T09:55:48;1.23;;;0.80;;
14554;SDS011;7364;50.870;4.722;2024-03-29T09:58:16;1.97;;;0.83;;
14554;SDS011;7364;50.870;4.722;2024-03-29T10:00:45;1.00;;;0.70;;
14554;SDS011;7364;50.870;4.722;2024-03-29T10:03:12;2.30;;;0.80;;
14554;SDS011;7364;50.870;4.722;2024-03-29T10:05:47;1.37;;;0.83;;
14554;SDS011;7364;50.870;4.722;2024-03-29T10:08:15;2.40;;;1.00;;
14554;SDS011;7364;50.870;4.722;2024-03-29T10:10:43;0.70;;;0.60;;
14554;SDS011;7364;50.870;4.722;2024-03-29T10:13:11;2.80;;;0.80;;
14554;SDS011;7364;50.870;4.722;2024-03-29T10:15:38;2.90;;;1.07;;
14554;SDS011;7364;50.870;4.722;2024-03-29T10:18:12;1.27;;;0.70;;
14554;SDS011;7364;50.870;4.722;2024-03-29T10:20:40;2.40;;;0.70;;
14554;SDS011;7364;50.870;4.722;2024-03-29T10:23:08;2.10;;;0.80;;
14554;SDS011;7364;50.870;4.722;2024-03-29T10:25:35;1.97;;;0.93;;
14554;SDS011;7364;50.870;4.722;2024-03-29T10:28:03;1.53;;;0.73;;
14554;SDS011;7364;50.870;4.722;2024-03-29T10:30:30;1.07;;;0.77;;
14554;SDS011;7364;50.870;4.722;2024-03-29T10:32:58;1.37;;;0.80;;
14554;SDS011;7364;50.870;4.722;2024-03-29T10:35:28;0.80;;;0.60;;
14554;SDS011;7364;50.870;4.722;2024-03-29T10:37:55;0.90;;;0.67;;
14554;SDS011;7364;50.870;4.722;2024-03-29T10:40:22;1.50;;;1.03;;
14554;SDS011;7364;50.870;4.722;2024-03-29T10:42:51;1.57;;;1.10;;
14554;SDS011;7364;50.870;4.722;2024-03-29T10:45:19;2.23;;;1.00;;
14554;SDS011;7364;50.870;4.722;2024-03-29T10:47:47;1.27;;;0.70;;
14554;SDS011;7364;50.870;4.722;2024-03-29T10:50:17;1.73;;;0.83;;
14554;SDS011;7364;50.870;4.722;2024-03-29T10:52:49;1.23;;;0.73;;
14554;SDS011;7364;50.870;4.722;2024-03-29T10:55:18;0.90;;;0.60;;
14554;SDS011;7364;50.870;4.722;2024-03-29T10:57:46;1.23;;;0.70;;
14554;SDS011;7364;50.870;4.722;2024-03-29T11:00:17;1.50;;;0.97;;
14554;SDS011;7364;50.870;4.722;2024-03-29T11:02:48;0.70;;;0.50;;
14554;SDS011;7364;50.870;4.722;2024-03-29T11:05:17;1.57;;;0.73;;
14554;SDS011;7364;50.870;4.722;2024-03-29T11:07:44;3.70;;;0.80;;
14554;SDS011;7364;50.870;4.722;2024-03-29T11:10:17;1.20;;;0.77;;
14554;SDS011;7364;50.870;4.722;2024-03-29T11:12:57;2.33;;;0.90;;
14554;SDS011;7364;50.870;4.722;2024-03-29T11:15:29;1.13;;;0.60;;
14554;SDS011;7364;50.870;4.722;2024-03-29T11:17:57;1.70;;;0.73;;
14554;SDS011;7364;50.870;4.722;2024-03-29T11:20:25;1.07;;;0.57;;
14554;SDS011;7364;50.870;4.722;2024-03-29T11:23:01;0.50;;;0.40;;
14554;SDS011;7364;50.870;4.722;2024-03-29T11:25:42;0.97;;;0.70;;
14554;SDS011;7364;50.870;4.722;2024-03-29T11:28:11;0.77;;;0.50;;
14554;SDS011;7364;50.870;4.722;2024-03-29T11:30:41;1.80;;;0.70;;
14554;SDS011;7364;50.870;4.722;2024-03-29T11:35:52;1.77;;;0.87;;
14554;SDS011;7364;50.870;4.722;2024-03-29T11:38:20;1.17;;;0.60;;
14554;SDS011;7364;50.870;4.722;2024-03-29T11:41:00;1.73;;;0.70;;
14554;SDS011;7364;50.870;4.722;2024-03-29T11:43:28;3.47;;;0.60;;
14554;SDS011;7364;50.870;4.722;2024-03-29T11:45:57;1.00;;;0.80;;
14554;SDS011;7364;50.870;4.722;2024-03-29T11:48:26;1.93;;;0.63;;
14554;SDS011;7364;50.870;4.722;2024-03-29T11:50:54;1.23;;;0.70;;
14554;SDS011;7364;50.870;4.722;2024-03-29T11:53:21;1.17;;;0.70;;
14554;SDS011;7364;50.870;4.722;2024-03-29T11:55:49;1.90;;;0.67;;
14554;SDS011;7364;50.870;4.722;2024-03-29T11:58:20;1.27;;;0.67;;
14554;SDS011;7364;50.870;4.722;2024-03-29T12:00:49;1.30;;;0.70;;
14554;SDS011;7364;50.870;4.722;2024-03-29T12:03:16;1.40;;;0.70;;
14554;SDS011;7364;50.870;4.722;2024-03-29T12:05:45;0.77;;;0.53;;
14554;SDS011;7364;50.870;4.722;2024-03-29T12:08:13;1.13;;;0.70;;
14554;SDS011;7364;50.870;4.722;2024-03-29T12:10:41;1.13;;;0.77;;
14554;SDS011;7364;50.870;4.722;2024-03-29T12:13:10;1.20;;;0.60;;
14554;SDS011;7364;50.870;4.722;2024-03-29T12:15:38;0.73;;;0.53;;
14554;SDS011;7364;50.870;4.722;2024-03-29T12:18:06;0.83;;;0.60;;
14554;SDS011;7364;50.870;4.722;2024-03-29T12:20:34;0.63;;;0.40;;
14554;SDS011;7364;50.870;4.722;2024-03-29T12:23:02;1.00;;;0.40;;
14554;SDS011;7364;50.870;4.722;2024-03-29T12:25:32;0.70;;;0.60;;
14554;SDS011;7364;50.870;4.722;2024-03-29T12:28:00;1.13;;;0.57;;
14554;SDS011;7364;50.870;4.722;2024-03-29T12:30:27;0.30;;;0.30;;
14554;SDS011;7364;50.870;4.722;2024-03-29T12:33:03;1.10;;;0.50;;
14554;SDS011;7364;50.870;4.722;2024-03-29T12:35:32;2.00;;;0.50;;
14554;SDS011;7364;50.870;4.722;2024-03-29T12:38:00;0.90;;;0.53;;
14554;SDS011;7364;50.870;4.722;2024-03-29T12:40:29;1.80;;;0.40;;
14554;SDS011;7364;50.870;4.722;2024-03-29T12:43:02;1.57;;;0.60;;
14554;SDS011;7364;50.870;4.722;2024-03-29T12:45:30;0.80;;;0.37;;
14554;SDS011;7364;50.870;4.722;2024-03-29T12:47:58;0.47;;;0.43;;
14554;SDS011;7364;50.870;4.722;2024-03-29T12:50:27;0.67;;;0.40;;
14554;SDS011;7364;50.870;4.722;2024-03-29T12:52:55;1.03;;;0.60;;
14554;SDS011;7364;50.870;4.722;2024-03-29T12:55:23;0.83;;;0.50;;
14554;SDS011;7364;50.870;4.722;2024-03-29T12:57:55;0.93;;;0.43;;
14554;SDS011;7364;50.870;4.722;2024-03-29T13:00:25;1.33;;;0.70;;
14554;SDS011;7364;50.870;4.722;2024-03-29T13:02:53;0.93;;;0.60;;
14554;SDS011;7364;50.870;4.722;2024-03-29T13:05:21;1.90;;;0.70;;
14554;SDS011;7364;50.870;4.722;2024-03-29T13:07:50;0.60;;;0.40;;
14554;SDS011;7364;50.870;4.722;2024-03-29T13:10:19;2.07;;;0.77;;
14554;SDS011;7364;50.870;4.722;2024-03-29T13:12:46;2.63;;;0.70;;
14554;SDS011;7364;50.870;4.722;2024-03-29T13:15:16;1.43;;;0.50;;
14554;SDS011;7364;50.870;4.722;2024-03-29T13:17:45;2.63;;;0.90;;
14554;SDS011;7364;50.870;4.722;2024-03-29T13:20:14;1.20;;;0.60;;
14554;SDS011;7364;50.870;4.722;2024-03-29T13:22:42;0.97;;;0.57;;
14554;SDS011;7364;50.870;4.722;2024-03-29T13:25:13;1.63;;;0.70;;
14554;SDS011;7364;50.870;4.722;2024-03-29T13:27:41;1.57;;;0.70;;
14554;SDS011;7364;50.870;4.722;2024-03-29T13:30:09;1.47;;;0.73;;
14554;SDS011;7364;50.870;4.722;2024-03-29T13:32:37;1.67;;;0.80;;
14554;SDS011;7364;50.870;4.722;2024-03-29T13:35:06;2.30;;;0.70;;
14554;SDS011;7364;50.870;4.722;2024-03-29T13:37:36;2.93;;;0.60;;
14554;SDS011;7364;50.870;4.722;2024-03-29T13:40:04;1.20;;;0.70;;
14554;SDS011;7364;50.870;4.722;2024-03-29T13:42:34;1.07;;;0.60;;
14554;SDS011;7364;50.870;4.722;2024-03-29T13:45:02;0.93;;;0.60;;
14554;SDS011;7364;50.870;4.722;2024-03-29T13:47:30;1.37;;;0.80;;
14554;SDS011;7364;50.870;4.722;2024-03-29T13:49:59;1.20;;;0.60;;
14554;SDS011;7364;50.870;4.722;2024-03-29T13:52:26;3.00;;;0.70;;
14554;SDS011;7364;50.870;4.722;2024-03-29T13:54:54;2.33;;;0.80;;
14554;SDS011;7364;50.870;4.722;2024-03-29T13:57:21;4.77;;;1.00;;
14554;SDS011;7364;50.870;4.722;2024-03-29T13:59:50;2.00;;;0.60;;
14554;SDS011;7364;50.870;4.722;2024-03-29T14:02:18;0.73;;;0.60;;
14554;SDS011;7364;50.870;4.722;2024-03-29T14:04:46;1.87;;;0.70;;
14554;SDS011;7364;50.870;4.722;2024-03-29T14:07:15;0.93;;;0.50;;
14554;SDS011;7364;50.870;4.722;2024-03-29T14:09:43;0.80;;;0.50;;
14554;SDS011;7364;50.870;4.722;2024-03-29T14:12:11;2.13;;;0.70;;
14554;SDS011;7364;50.870;4.722;2024-03-29T14:14:39;1.77;;;0.70;;
14554;SDS011;7364;50.870;4.722;2024-03-29T14:17:09;1.27;;;0.60;;
14554;SDS011;7364;50.870;4.722;2024-03-29T14:19:36;2.03;;;1.00;;
14554;SDS011;7364;50.870;4.722;2024-03-29T14:22:04;1.63;;;0.70;;
14554;SDS011;7364;50.870;4.722;2024-03-29T14:24:32;0.80;;;0.60;;
14554;SDS011;7364;50.870;4.722;2024-03-29T14:27:01;2.60;;;0.80;;
14554;SDS011;7364;50.870;4.722;2024-03-29T14:29:29;2.33;;;1.00;;
14554;SDS011;7364;50.870;4.722;2024-03-29T14:31:57;1.10;;;0.87;;
14554;SDS011;7364;50.870;4.722;2024-03-29T14:34:26;2.73;;;0.80;;
14554;SDS011;7364;50.870;4.722;2024-03-29T14:36:56;1.50;;;0.80;;
14554;SDS011;7364;50.870;4.722;2024-03-29T14:39:23;2.67;;;0.90;;
14554;SDS011;7364;50.870;4.722;2024-03-29T14:41:51;1.50;;;0.90;;
14554;SDS011;7364;50.870;4.722;2024-03-29T14:44:18;1.27;;;0.80;;
14554;SDS011;7364;50.870;4.722;2024-03-29T14:46:46;2.23;;;0.83;;
14554;SDS011;7364;50.870;4.722;2024-03-29T14:49:14;2.03;;;1.10;;
14554;SDS011;7364;50.870;4.722;2024-03-29T14:51:44;3.30;;;0.90;;
14554;SDS011;7364;50.870;4.722;2024-03-29T14:54:11;3.73;;;0.80;;
14554;SDS011;7364;50.870;4.722;2024-03-29T14:56:38;1.23;;;0.70;;
14554;SDS011;7364;50.870;4.722;2024-03-29T14:59:06;2.37;;;1.20;;
14554;SDS011;7364;50.870;4.722;2024-03-29T15:01:35;1.37;;;0.80;;
14554;SDS011;7364;50.870;4.722;2024-03-29T15:04:02;1.23;;;0.67;;
14554;SDS011;7364;50.870;4.722;2024-03-29T15:06:30;1.43;;;0.93;;
14554;SDS011;7364;50.870;4.722;2024-03-29T15:08:59;1.87;;;1.03;;